Terminal Aerodrome Forecast
Issued by NWS Chicago, IL

Home | Current Version | Previous Version | Text Only | Print | Product List | Glossary On
Versions: 1 2 3 4 5 6 7 8 9 10 11 12 13 14 15 16 17 18 19 20 21 22 23 24 25 26 27 28 29 30 31 32 33 34
000
FTUS43 KLOT 280500
TAFRFD
TAF
KRFD 280538Z 2806/2906 VRB03KT P6SM SCT120
     FM280900 23003KT P6SM BKN080
     FM281045 19007KT 3SM -SN BR BKN030 OVC050
     FM281230 18009KT P6SM SCT040 OVC070
     FM281700 17012G19KT P6SM SCT040 OVC060
     FM290100 19011KT P6SM BKN090=

USA.gov is the U.S. government's official web portal to all federal, state and local government web resources and services.